Time;durP1;ratioP1;P1;durP2;ratioP2;P2;SDS_P1;SDS_P2;PMS_P1;PMS_P2;Temp;Humidity;BMP_temperature;BMP_pressure;BME280_temperature;BME280_humidity;BME280_pressure;Samples;Min_cycle;Max_cycle;Signal;HPM_P1;HPM_P2
2023/04/05 00:00:47;;;;;;;7.97;4.20;;;;;;;0.96;55.18;100687.94;10265725;28;20550;-61
2023/04/05 00:05:49;;;;;;;8.13;4.50;;;;;;;0.94;55.34;100685.41;10270863;28;20047;-60
2023/04/05 00:10:52;;;;;;;8.50;4.60;;;;;;;0.86;55.65;100687.19;10268585;28;20379;-61
2023/04/05 00:15:57;;;;;;;8.65;4.53;;;;;;;0.78;55.79;100677.81;10271110;28;20054;-60
2023/04/05 00:20:59;;;;;;;8.48;4.60;;;;;;;0.79;56.07;100676.97;10267045;28;20054;-60
2023/04/05 00:26:01;;;;;;;9.27;4.95;;;;;;;0.69;55.96;100680.47;10269218;28;20529;-60
2023/04/05 00:31:04;;;;;;;11.57;4.72;;;;;;;0.58;56.23;100680.56;10267674;28;20046;-60
2023/04/05 00:36:12;;;;;;;8.52;4.38;;;;;;;0.69;56.63;100672.75;10268043;28;20419;-60
2023/04/05 00:41:15;;;;;;;9.02;4.60;;;;;;;0.77;56.10;100684.69;10267629;28;20589;-60
2023/04/05 00:46:17;;;;;;;8.20;4.47;;;;;;;0.83;56.31;100681.22;10287687;28;20258;-60
2023/04/05 00:51:19;;;;;;;8.98;4.65;;;;;;;0.81;56.36;100673.47;10281701;28;20074;-60
2023/04/05 00:56:23;;;;;;;8.55;4.40;;;;;;;0.76;56.40;100670.09;10265679;28;20046;-60
2023/04/05 01:01:26;;;;;;;9.48;4.15;;;;;;;0.73;56.50;100670.13;10267251;28;20045;-60
2023/04/05 01:06:52;;;;;;;9.60;4.68;;;;;;;0.59;57.07;100665.97;10268328;28;20034;-60
2023/04/05 01:11:57;;;;;;;8.40;4.40;;;;;;;0.57;56.89;100657.38;10261122;28;20104;-60
2023/04/05 01:16:59;;;;;;;9.00;4.43;;;;;;;0.52;56.88;100649.72;10261107;28;20050;-61
2023/04/05 01:22:26;;;;;;;10.05;5.20;;;;;;;0.38;57.43;100652.38;10265021;28;20503;-60
2023/04/05 01:27:57;;;;;;;7.22;4.35;;;;;;;0.24;58.17;100643.91;10261886;28;20158;-60
2023/04/05 01:33:20;;;;;;;10.40;4.40;;;;;;;0.24;58.23;100643.91;10257851;28;20226;-60
2023/04/05 01:38:27;;;;;;;8.57;4.78;;;;;;;0.23;57.70;100642.22;10277023;28;20050;-60
2023/04/05 01:43:28;;;;;;;8.02;4.97;;;;;;;0.22;57.68;100635.34;10259930;28;20261;-60
2023/04/05 01:48:30;;;;;;;9.57;4.65;;;;;;;0.17;57.85;100639.69;10258780;28;20045;-60
2023/04/05 01:53:34;;;;;;;6.68;4.43;;;;;;;0.09;57.78;100638.00;10275606;28;20066;-60
2023/04/05 01:58:36;;;;;;;6.80;4.47;;;;;;;-0.00;57.92;100638.06;10260259;28;20570;-60
2023/04/05 02:03:38;;;;;;;7.80;4.88;;;;;;;-0.09;58.06;100623.56;10280392;28;20047;-60
2023/04/05 02:08:40;;;;;;;8.20;5.18;;;;;;;-0.15;58.16;100627.88;10266627;28;20093;-60
2023/04/05 02:13:41;;;;;;;7.18;4.32;;;;;;;-0.18;58.21;100627.88;10265455;28;20790;-60
2023/04/05 02:18:49;;;;;;;8.00;5.13;;;;;;;-0.49;58.61;100628.03;10266399;28;20062;-60
2023/04/05 02:23:52;;;;;;;8.82;5.00;;;;;;;-0.52;58.93;100628.06;10269007;28;20065;-60
2023/04/05 02:28:54;;;;;;;7.25;4.90;;;;;;;-0.38;58.88;100622.84;10265753;28;20766;-60
2023/04/05 02:33:56;;;;;;;8.15;4.82;;;;;;;-0.35;58.87;100620.25;10267787;28;20046;-60
2023/04/05 02:38:58;;;;;;;6.00;4.40;;;;;;;-0.35;58.96;100631.38;10265722;28;20053;-60
2023/04/05 02:44:00;;;;;;;10.05;4.88;;;;;;;-0.34;58.77;100627.97;10264797;28;20073;-60
2023/04/05 02:49:04;;;;;;;7.03;4.70;;;;;;;-0.37;58.82;100620.25;10279327;28;20406;-60
2023/04/05 02:54:07;;;;;;;9.55;5.30;;;;;;;-0.41;58.86;100621.13;10263572;28;20051;-60
2023/04/05 02:59:12;;;;;;;9.98;4.60;;;;;;;-0.46;58.82;100630.59;10265563;28;20065;-60
2023/04/05 03:04:16;;;;;;;9.27;4.85;;;;;;;-0.49;58.93;100622.88;10246188;28;20042;-60
2023/04/05 03:09:18;;;;;;;8.40;5.70;;;;;;;-0.77;59.09;100626.41;10272890;28;20340;-60
2023/04/05 03:14:24;;;;;;;10.75;5.88;;;;;;;-0.84;59.58;100608.47;10255584;28;20632;-60
2023/04/05 03:19:26;;;;;;;7.80;5.85;;;;;;;-0.85;59.78;100610.16;10258176;28;20046;-60
2023/04/05 03:24:35;;;;;;;9.57;5.32;;;;;;;-0.83;59.67;100616.16;10257978;28;20053;-60
2023/04/05 03:29:41;;;;;;;6.63;4.60;;;;;;;-0.80;59.76;100616.13;10256508;28;20565;-60
2023/04/05 03:34:48;;;;;;;8.98;5.03;;;;;;;-0.72;59.78;100614.41;10255282;28;20536;-60
2023/04/05 03:39:52;;;;;;;7.70;4.85;;;;;;;-0.74;59.79;100610.97;10258459;28;20057;-60
2023/04/05 03:44:54;;;;;;;7.75;5.18;;;;;;;-0.73;59.53;100617.84;10271625;28;20738;-60
2023/04/05 03:49:56;;;;;;;10.85;5.60;;;;;;;-0.83;59.65;100611.03;10255055;28;20684;-60
2023/04/05 03:54:58;;;;;;;8.25;5.10;;;;;;;-0.86;59.78;100613.59;10269203;28;20043;-60
2023/04/05 04:00:12;;;;;;;9.43;5.18;;;;;;;-0.89;59.73;100610.19;10258061;28;20407;-60
2023/04/05 04:05:16;;;;;;;12.82;5.97;;;;;;;-0.99;59.76;100617.06;10255212;28;20047;-60
2023/04/05 04:10:22;;;;;;;9.82;6.15;;;;;;;-1.35;60.07;100612.81;10257847;28;20047;-60
2023/04/05 04:15:28;;;;;;;9.90;5.60;;;;;;;-1.40;60.32;100606.84;10271510;28;20861;-60
2023/04/05 04:20:48;;;;;;;6.88;5.03;;;;;;;-1.31;60.22;100611.97;10254677;28;20182;-60
2023/04/05 04:26:03;;;;;;;9.30;5.28;;;;;;;-1.25;60.15;100608.56;10254394;28;20078;-60
2023/04/05 04:31:12;;;;;;;7.22;5.30;;;;;;;-1.26;60.08;100606.84;10257126;28;20054;-61
2023/04/05 04:36:47;;;;;;;10.85;6.15;;;;;;;-1.23;60.26;100615.38;10243494;28;20058;-60
2023/04/05 04:42:18;;;;;;;9.60;6.05;;;;;;;-1.21;60.05;100608.53;10226967;28;20047;-60
2023/04/05 04:47:41;;;;;;;10.27;5.90;;;;;;;-1.25;60.05;100611.94;10258971;28;20322;-60
2023/04/05 04:53:03;;;;;;;9.27;5.70;;;;;;;-1.27;60.16;100617.97;10267764;28;20882;-60
2023/04/05 04:58:08;;;;;;;9.57;5.60;;;;;;;-1.20;60.35;100617.94;10270790;28;20049;-60
2023/04/05 05:03:11;;;;;;;10.13;6.40;;;;;;;-1.15;60.21;100623.09;10269047;28;20078;-60
2023/04/05 05:08:13;;;;;;;10.18;6.10;;;;;;;-1.16;60.09;100627.34;10269768;28;20074;-60
2023/04/05 05:13:16;;;;;;;8.85;6.28;;;;;;;-1.11;59.99;100614.53;10268721;28;20054;-60
2023/04/05 05:18:18;;;;;;;9.10;6.20;;;;;;;-1.03;60.02;100612.78;10270030;28;20047;-60
2023/04/05 05:23:20;;;;;;;9.40;5.70;;;;;;;-0.99;59.92;100623.91;10270300;28;20050;-60
2023/04/05 05:28:24;;;;;;;9.13;6.15;;;;;;;-0.94;59.88;100620.44;10269348;28;20047;-60
2023/04/05 05:33:26;;;;;;;9.02;6.07;;;;;;;-0.88;59.93;100617.88;10269673;28;20047;-60
2023/04/05 05:38:28;;;;;;;11.05;6.57;;;;;;;-0.73;59.73;100617.84;10268939;28;20479;-60
2023/04/05 05:43:29;;;;;;;8.75;6.20;;;;;;;-0.63;59.52;100614.38;10269563;28;20047;-60
2023/04/05 05:48:32;;;;;;;8.98;6.00;;;;;;;-0.57;59.57;100608.34;10267902;28;20487;-60
2023/04/05 05:53:36;;;;;;;10.10;6.35;;;;;;;-0.60;59.55;100616.94;10268820;28;20054;-60
2023/04/05 05:58:38;;;;;;;10.45;6.55;;;;;;;-0.53;59.50;100620.31;10267678;28;20047;-61
2023/04/05 06:03:39;;;;;;;15.60;6.43;;;;;;;-0.35;59.34;100620.25;10267325;28;20165;-60
2023/04/05 06:08:42;;;;;;;12.50;6.20;;;;;;;-0.24;59.04;100617.63;10266216;28;20047;-60
2023/04/05 06:13:44;;;;;;;11.30;6.43;;;;;;;-0.14;58.79;100625.28;10266652;28;20419;-60
2023/04/05 06:18:46;;;;;;;11.88;6.60;;;;;;;-0.02;58.69;100627.78;10266519;28;20177;-60
2023/04/05 06:23:48;;;;;;;15.55;7.72;;;;;;;-0.05;58.80;100627.81;10267679;28;20092;-61
2023/04/05 06:28:50;;;;;;;9.57;6.82;;;;;;;0.01;58.68;100632.91;10281377;28;20585;-60
2023/04/05 06:33:51;;;;;;;10.90;7.22;;;;;;;0.13;58.90;100632.84;10267498;28;20058;-60
2023/04/05 06:38:53;;;;;;;11.65;7.00;;;;;;;0.33;58.80;100625.84;10266355;28;20049;-61
2023/04/05 06:43:55;;;;;;;13.70;7.40;;;;;;;0.45;58.64;100617.16;10267199;28;20055;-61
2023/04/05 06:48:58;;;;;;;11.02;7.25;;;;;;;0.58;58.57;100623.06;10266075;28;20050;-61
2023/04/05 06:54:02;;;;;;;12.07;6.95;;;;;;;0.67;58.32;100612.72;10266242;28;20522;-61
2023/04/05 06:59:05;;;;;;;10.45;6.97;;;;;;;0.80;57.69;100612.56;10265350;28;20169;-60
2023/04/05 07:04:06;;;;;;;14.27;6.78;;;;;;;0.79;57.11;100617.75;10263116;28;20058;-61
2023/04/05 07:09:08;;;;;;;9.68;6.50;;;;;;;0.85;56.99;100618.53;10279549;28;20043;-61
2023/04/05 07:14:10;;;;;;;9.63;6.80;;;;;;;1.12;56.66;100613.09;10258061;28;20054;-61
2023/04/05 07:19:12;;;;;;;12.20;7.03;;;;;;;1.34;56.34;100616.28;10275324;28;20091;-61
2023/04/05 07:24:14;;;;;;;11.05;7.05;;;;;;;1.53;56.06;100599.72;10256245;28;20059;-61
2023/04/05 07:29:18;;;;;;;10.35;6.63;;;;;;;1.71;55.40;100598.63;10257211;28;20045;-61
2023/04/05 07:34:20;;;;;;;9.90;6.63;;;;;;;1.77;55.01;100603.72;10257254;28;20603;-61
2023/04/05 07:39:22;;;;;;;12.38;7.38;;;;;;;2.00;54.68;100602.53;10258299;28;20051;-61
2023/04/05 07:44:24;;;;;;;10.20;5.78;;;;;;;2.64;53.56;100599.78;10289370;28;20065;-61
2023/04/05 07:49:26;;;;;;;9.65;6.15;;;;;;;3.52;52.02;100586.06;10260464;28;20491;-61
2023/04/05 07:54:32;;;;;;;10.68;6.22;;;;;;;4.18;50.08;100585.47;10257493;28;20055;-61
2023/04/05 07:59:36;;;;;;;10.30;6.38;;;;;;;4.84;49.12;100598.53;10261262;28;20057;-61
2023/04/05 08:04:37;;;;;;;12.63;6.13;;;;;;;5.42;47.57;100589.13;10286507;28;20061;-61
2023/04/05 08:09:40;;;;;;;10.05;5.88;;;;;;;5.57;47.03;100590.44;10272683;28;20205;-61
2023/04/05 08:14:42;;;;;;;10.73;6.32;;;;;;;5.55;46.37;100582.69;10262064;28;20051;-61
2023/04/05 08:19:44;;;;;;;11.88;5.80;;;;;;;6.04;45.51;100571.69;10268678;28;20571;-61
2023/04/05 08:24:46;;;;;;;10.45;5.65;;;;;;;6.22;45.30;100559.88;10245461;28;20358;-61
2023/04/05 08:29:48;;;;;;;9.07;5.65;;;;;;;6.47;44.06;100567.75;10264556;28;20050;-61
2023/04/05 08:34:50;;;;;;;11.38;5.20;;;;;;;6.76;43.20;100559.81;10260283;28;20410;-61
2023/04/05 08:39:52;;;;;;;9.52;5.57;;;;;;;6.64;43.01;100560.25;10264885;28;20272;-61
2023/04/05 08:44:56;;;;;;;9.98;5.90;;;;;;;6.97;42.82;100552.16;10258898;28;20046;-61
2023/04/05 08:49:59;;;;;;;7.93;5.22;;;;;;;7.35;41.84;100548.16;10264878;28;20053;-62
2023/04/05 08:55:00;;;;;;;10.93;5.25;;;;;;;7.60;40.92;100553.31;10256866;28;20074;-62
2023/04/05 09:00:03;;;;;;;10.10;5.43;;;;;;;7.76;40.37;100544.84;10257788;28;20411;-61
2023/04/05 09:05:08;;;;;;;11.02;5.20;;;;;;;7.60;39.82;100548.94;10272733;28;20267;-61
2023/04/05 09:10:12;;;;;;;10.02;5.35;;;;;;;7.88;38.77;100544.38;10262320;28;20043;-62
2023/04/05 09:15:15;;;;;;;11.15;4.50;;;;;;;8.32;38.76;100541.78;10257254;28;20462;-62
2023/04/05 09:20:17;;;;;;;7.15;4.00;;;;;;;8.58;36.78;100544.16;10261412;28;20046;-61
2023/04/05 09:25:31;;;;;;;6.32;3.75;;;;;;;8.78;35.59;100533.75;10254424;28;20050;-62
2023/04/05 09:30:35;;;;;;;7.95;3.90;;;;;;;8.88;36.67;100521.13;10260109;28;20502;-62
2023/04/05 09:35:39;;;;;;;8.90;4.35;;;;;;;8.51;37.03;100527.06;10272068;28;20051;-61
2023/04/05 09:40:46;;;;;;;8.73;3.95;;;;;;;8.75;34.58;100519.06;10257645;28;20314;-61
2023/04/05 09:46:00;;;;;;;8.55;4.00;;;;;;;8.82;35.26;100507.47;10276275;28;20678;-61
2023/04/05 09:51:05;;;;;;;7.03;3.55;;;;;;;9.17;33.97;100497.22;10276002;28;20055;-61
2023/04/05 09:56:13;;;;;;;5.45;3.33;;;;;;;9.35;34.34;100497.25;10259627;28;20051;-62
2023/04/05 10:01:15;;;;;;;8.70;3.70;;;;;;;9.18;34.02;100504.16;10257858;28;20145;-61
2023/04/05 10:06:18;;;;;;;6.13;3.35;;;;;;;8.92;33.73;100500.09;10259502;28;20054;-62
2023/04/05 10:11:22;;;;;;;7.80;3.97;;;;;;;8.57;34.49;100506.81;10256612;28;20459;-61
2023/04/05 10:16:27;;;;;;;6.20;3.53;;;;;;;8.92;34.70;100500.09;10256188;28;20050;-62
2023/04/05 10:21:34;;;;;;;7.45;3.65;;;;;;;9.08;33.85;100495.88;10255910;28;20042;-62
2023/04/05 10:26:58;;;;;;;6.88;3.90;;;;;;;8.78;33.53;100489.41;10261434;28;20054;-61
2023/04/05 10:32:17;;;;;;;6.45;4.05;;;;;;;8.65;32.62;100483.00;10252027;28;21876;-61
2023/04/05 10:37:54;;;;;;;6.57;3.40;;;;;;;8.61;31.93;100468.41;10273047;28;20042;-61
2023/04/05 10:42:56;;;;;;;9.93;3.90;;;;;;;8.80;33.80;100466.72;10255332;28;20042;-61
2023/04/05 10:48:11;;;;;;;6.75;3.70;;;;;;;9.04;31.04;100459.53;10269319;28;20043;-61
2023/04/05 10:53:14;;;;;;;5.68;3.65;;;;;;;8.97;33.02;100469.44;10265926;28;20250;-61
2023/04/05 10:58:17;;;;;;;8.27;3.83;;;;;;;8.48;33.86;100478.53;10252137;28;20141;-61
2023/04/05 11:03:40;;;;;;;8.23;4.25;;;;;;;8.73;33.15;100465.28;10253198;28;20069;-62
2023/04/05 11:08:45;;;;;;;6.25;3.80;;;;;;;8.61;33.81;100460.59;10254222;28;20407;-61
2023/04/05 11:13:54;;;;;;;8.90;4.10;;;;;;;8.55;33.18;100456.50;10252643;28;20053;-61
2023/04/05 11:18:56;;;;;;;7.40;3.80;;;;;;;8.28;33.39;100457.66;10254433;28;20047;-62
2023/04/05 11:24:06;;;;;;;6.72;4.22;;;;;;;8.60;33.61;100445.88;10251241;28;20298;-61
2023/04/05 11:29:08;;;;;;;8.70;4.03;;;;;;;8.48;32.20;100442.06;10259158;28;20337;-61
2023/04/05 11:34:10;;;;;;;11.75;4.40;;;;;;;8.34;32.57;100443.56;10255261;28;20415;-61
2023/04/05 11:39:18;;;;;;;8.25;3.83;;;;;;;8.54;33.17;100440.94;10257442;28;20055;-61
2023/04/05 11:44:21;;;;;;;7.40;4.18;;;;;;;8.45;32.97;100436.97;10259778;28;20090;-61
2023/04/05 11:49:24;;;;;;;10.95;4.30;;;;;;;8.74;32.54;100422.66;10261741;28;20038;-61
2023/04/05 11:54:33;;;;;;;8.63;3.80;;;;;;;8.88;31.63;100409.84;10254538;28;21197;-61
2023/04/05 11:59:35;;;;;;;11.30;4.53;;;;;;;9.19;32.32;100404.91;10258012;28;20043;-61
2023/04/05 12:04:38;;;;;;;12.73;4.68;;;;;;;9.42;31.84;100404.66;10256122;28;20621;-61
2023/04/05 12:09:58;;;;;;;5.60;3.85;;;;;;;9.34;30.71;100403.34;10255970;28;20105;-61
2023/04/05 12:15:01;;;;;;;7.53;3.73;;;;;;;9.25;30.65;100404.63;10260240;28;20074;-61
2023/04/05 12:20:04;;;;;;;7.28;3.90;;;;;;;9.13;30.65;100406.97;10260248;28;20058;-61
2023/04/05 12:25:07;;;;;;;8.13;3.95;;;;;;;8.88;29.66;100394.19;10256500;28;20582;-61
2023/04/05 12:30:13;;;;;;;7.72;3.28;;;;;;;8.85;29.46;100389.94;10272100;28;20043;-60
2023/04/05 12:35:18;;;;;;;6.78;3.65;;;;;;;9.09;29.66;100387.16;10254145;28;20054;-61
2023/04/05 12:40:22;;;;;;;7.07;3.33;;;;;;;9.26;29.35;100369.78;10262020;28;20039;-60
2023/04/05 12:45:24;;;;;;;6.95;3.50;;;;;;;9.52;29.32;100366.75;10257802;28;20350;-62
2023/04/05 12:50:26;;;;;;;6.20;2.80;;;;;;;9.20;28.78;100357.00;10259852;28;21029;-62
2023/04/05 12:55:29;;;;;;;7.25;3.40;;;;;;;9.45;29.33;100354.94;10254393;28;20045;-61
2023/04/05 13:00:31;;;;;;;6.93;3.47;;;;;;;9.46;29.69;100351.38;10262086;28;20133;-61
2023/04/05 13:05:33;;;;;;;6.88;3.63;;;;;;;9.92;28.96;100336.94;10257345;28;20326;-61
2023/04/05 13:10:34;;;;;;;6.82;3.75;;;;;;;10.09;29.13;100330.88;10268936;28;20054;-61
2023/04/05 13:15:36;;;;;;;5.72;3.60;;;;;;;10.13;28.22;100325.41;10269111;28;20468;-61
2023/04/05 13:20:38;;;;;;;7.10;3.30;;;;;;;10.27;29.47;100327.28;10269626;28;20051;-61
2023/04/05 13:25:42;;;;;;;9.32;3.30;;;;;;;10.55;28.47;100324.06;10269944;28;20059;-61
2023/04/05 13:30:44;;;;;;;6.82;3.40;;;;;;;10.74;28.82;100315.16;10283989;28;20039;-61
2023/04/05 13:35:46;;;;;;;6.32;3.70;;;;;;;10.34;29.48;100320.81;10268848;28;20050;-61
2023/04/05 13:40:48;;;;;;;7.88;3.78;;;;;;;10.37;29.59;100304.97;10280985;28;20399;-61
2023/04/05 13:45:50;;;;;;;6.68;3.45;;;;;;;10.22;28.99;100295.31;10264917;28;20507;-61
2023/04/05 13:50:51;;;;;;;6.55;3.63;;;;;;;10.16;29.19;100295.63;10267233;28;20450;-61
2023/04/05 13:55:53;;;;;;;6.65;3.60;;;;;;;10.26;29.07;100291.59;10266453;28;20400;-61
2023/04/05 14:00:55;;;;;;;7.97;4.00;;;;;;;10.19;28.56;100285.03;10272616;28;20042;-61
2023/04/05 14:05:57;;;;;;;7.55;3.85;;;;;;;10.25;28.70;100284.72;10264585;28;20051;-61
2023/04/05 14:10:59;;;;;;;7.95;3.40;;;;;;;10.27;28.74;100288.09;10262835;28;20507;-61
2023/04/05 14:16:01;;;;;;;7.00;3.55;;;;;;;9.96;28.53;100290.59;10264932;28;20054;-61
2023/04/05 14:21:03;;;;;;;7.97;3.65;;;;;;;9.87;27.87;100281.44;10259665;28;20461;-61
2023/04/05 14:26:05;;;;;;;7.00;3.30;;;;;;;10.29;28.03;100266.16;10262098;28;20051;-61
2023/04/05 14:31:07;;;;;;;7.35;3.33;;;;;;;10.06;27.80;100265.69;10261475;28;20047;-61
2023/04/05 14:36:08;;;;;;;9.07;3.40;;;;;;;9.86;28.07;100263.25;10260567;28;20446;-61
2023/04/05 14:41:10;;;;;;;6.18;3.70;;;;;;;10.08;27.63;100248.16;10258927;28;20039;-61
2023/04/05 14:46:12;;;;;;;8.57;3.38;;;;;;;10.38;28.00;100243.91;10261257;28;20498;-61
2023/04/05 14:51:14;;;;;;;8.60;3.40;;;;;;;10.51;27.57;100234.47;10275050;28;20566;-61
2023/04/05 14:56:16;;;;;;;5.75;3.17;;;;;;;10.33;27.27;100231.09;10261737;28;20046;-61
2023/04/05 15:01:18;;;;;;;6.28;3.50;;;;;;;10.38;27.62;100223.84;10263282;28;20355;-60
2023/04/05 15:06:19;;;;;;;6.78;3.20;;;;;;;10.55;28.69;100224.69;10259269;28;20313;-60
2023/04/05 15:11:21;;;;;;;6.05;3.28;;;;;;;10.38;28.46;100225.59;10260267;28;20070;-60
2023/04/05 15:16:23;;;;;;;7.00;3.45;;;;;;;10.48;28.23;100218.97;10260549;28;20042;-60
2023/04/05 15:21:26;;;;;;;6.72;3.33;;;;;;;10.22;28.28;100219.50;10259641;28;20190;-60
2023/04/05 15:26:27;;;;;;;7.28;3.70;;;;;;;10.36;27.78;100224.84;10261001;28;20256;-60
2023/04/05 15:31:33;;;;;;;7.00;3.40;;;;;;;10.80;27.64;100217.16;10258694;28;20039;-60
2023/04/05 15:36:35;;;;;;;5.82;3.60;;;;;;;10.73;27.26;100202.72;10258600;28;20046;-60
2023/04/05 15:41:36;;;;;;;5.47;2.95;;;;;;;10.51;27.45;100208.31;10259929;28;20165;-60
2023/04/05 15:46:38;;;;;;;6.13;3.35;;;;;;;10.62;28.59;100205.97;10259339;28;20129;-60
2023/04/05 15:51:41;;;;;;;6.95;3.03;;;;;;;10.78;28.10;100193.72;10257119;28;20520;-61
2023/04/05 15:56:43;;;;;;;6.30;3.17;;;;;;;10.72;27.62;100198.44;10257396;28;20051;-60
2023/04/05 16:01:45;;;;;;;8.00;3.63;;;;;;;10.65;28.07;100194.47;10293119;28;20054;-60
2023/04/05 16:06:46;;;;;;;6.20;3.20;;;;;;;10.79;27.96;100187.53;10259348;28;20082;-59
2023/04/05 16:11:48;;;;;;;5.97;3.55;;;;;;;10.67;28.26;100179.53;10260688;28;20439;-60
2023/04/05 16:16:50;;;;;;;6.65;3.42;;;;;;;10.38;27.92;100187.22;10258414;28;20057;-60
2023/04/05 16:21:55;;;;;;;4.63;3.00;;;;;;;10.45;28.07;100187.75;10275206;28;20272;-60
2023/04/05 16:26:57;;;;;;;6.95;3.40;;;;;;;10.45;28.79;100179.91;10262938;28;20154;-60
2023/04/05 16:31:59;;;;;;;5.35;3.20;;;;;;;10.48;29.51;100171.91;10257348;28;20062;-60
2023/04/05 16:37:01;;;;;;;7.13;3.90;;;;;;;10.22;29.48;100164.63;10261057;28;20051;-60
2023/04/05 16:42:03;;;;;;;6.38;3.55;;;;;;;10.12;29.45;100164.28;10264274;28;20051;-60
2023/04/05 16:47:05;;;;;;;5.47;3.42;;;;;;;10.10;29.39;100165.28;10266969;28;20059;-60
2023/04/05 16:52:08;;;;;;;6.28;3.40;;;;;;;10.61;29.27;100167.66;10269582;28;20051;-60
2023/04/05 16:57:09;;;;;;;7.68;3.20;;;;;;;10.92;29.00;100166.75;10268929;28;20133;-61
2023/04/05 17:02:11;;;;;;;7.22;3.80;;;;;;;10.63;29.32;100170.16;10267668;28;20087;-60
2023/04/05 17:07:13;;;;;;;5.55;3.17;;;;;;;10.31;29.51;100167.59;10270144;28;20043;-60
2023/04/05 17:12:15;;;;;;;5.15;3.25;;;;;;;9.99;29.73;100173.69;10267381;28;20061;-60
2023/04/05 17:17:17;;;;;;;7.63;3.15;;;;;;;9.71;29.78;100173.47;10263144;28;20051;-60
2023/04/05 17:22:19;;;;;;;4.95;3.20;;;;;;;9.50;30.47;100172.78;10268134;28;20279;-60
2023/04/05 17:27:21;;;;;;;7.13;3.30;;;;;;;9.36;30.75;100177.03;10269419;28;20051;-60
2023/04/05 17:32:29;;;;;;;5.72;3.60;;;;;;;9.19;30.87;100177.88;10268237;28;20053;-60
2023/04/05 17:37:31;;;;;;;8.57;3.58;;;;;;;9.00;31.13;100184.94;10265776;28;20049;-60
2023/04/05 17:42:33;;;;;;;6.05;3.20;;;;;;;8.76;31.94;100180.91;10263997;28;20498;-60
2023/04/05 17:47:35;;;;;;;7.07;3.45;;;;;;;8.53;32.11;100178.53;10282835;28;20047;-60
2023/04/05 17:52:37;;;;;;;6.07;3.10;;;;;;;8.35;32.68;100188.09;10263291;28;20142;-60
2023/04/05 17:57:39;;;;;;;6.38;3.30;;;;;;;8.18;32.30;100181.97;10266912;28;20493;-60
2023/04/05 18:02:41;;;;;;;7.25;3.25;;;;;;;8.03;32.59;100184.34;10265140;28;20632;-60
2023/04/05 18:07:43;;;;;;;6.28;3.80;;;;;;;7.89;33.11;100184.13;10266095;28;20063;-60
2023/04/05 18:12:45;;;;;;;5.43;3.63;;;;;;;7.72;33.83;100190.97;10263915;28;20070;-59
2023/04/05 18:17:47;;;;;;;6.20;3.70;;;;;;;7.53;33.78;100193.50;10265432;28;20142;-59
2023/04/05 18:22:49;;;;;;;7.30;4.13;;;;;;;7.33;35.02;100193.53;10260306;28;20039;-60
2023/04/05 18:27:51;;;;;;;7.53;3.97;;;;;;;7.14;35.28;100197.81;10262770;28;20134;-60
2023/04/05 18:32:53;;;;;;;5.28;3.40;;;;;;;7.03;35.79;100194.81;10263194;28;20066;-60
2023/04/05 18:37:56;;;;;;;7.72;3.80;;;;;;;6.91;36.10;100200.50;10263858;28;20490;-60
2023/04/05 18:42:57;;;;;;;7.22;4.30;;;;;;;6.71;36.26;100200.47;10261480;28;20065;-60
2023/04/05 18:48:00;;;;;;;10.80;6.50;;;;;;;6.58;36.70;100207.03;10264304;28;20061;-60
2023/04/05 18:53:02;;;;;;;7.53;4.32;;;;;;;6.43;37.95;100211.06;10261749;28;20058;-60
2023/04/05 18:58:04;;;;;;;10.75;4.00;;;;;;;6.29;38.25;100215.94;10262582;28;20054;-60
2023/04/05 19:03:06;;;;;;;7.65;3.95;;;;;;;6.16;39.13;100220.75;10279842;28;20093;-60
2023/04/05 19:08:08;;;;;;;9.45;4.43;;;;;;;6.04;39.33;100221.16;10262686;28;20193;-60
2023/04/05 19:13:12;;;;;;;7.68;4.65;;;;;;;5.97;39.39;100227.50;10263953;28;20087;-60
2023/04/05 19:18:14;;;;;;;9.73;4.35;;;;;;;5.87;39.76;100233.06;10261212;28;20454;-60
2023/04/05 19:23:16;;;;;;;8.00;4.95;;;;;;;5.68;40.56;100235.47;10263398;28;20091;-60
2023/04/05 19:28:18;;;;;;;10.10;4.90;;;;;;;5.57;40.96;100239.34;10264729;28;20559;-60
2023/04/05 19:33:20;;;;;;;9.07;3.97;;;;;;;5.38;41.25;100236.53;10262524;28;20046;-60
2023/04/05 19:38:22;;;;;;;7.47;3.90;;;;;;;5.16;42.02;100256.28;10259734;28;20129;-60
2023/04/05 19:43:25;;;;;;;6.07;3.20;;;;;;;5.03;42.20;100247.19;10261538;28;20137;-60
2023/04/05 19:48:35;;;;;;;6.60;3.58;;;;;;;4.82;42.91;100253.09;10259727;28;20057;-60
2023/04/05 19:53:47;;;;;;;5.43;3.42;;;;;;;4.52;43.73;100266.06;10261001;28;20055;-59
2023/04/05 19:59:00;;;;;;;8.57;3.78;;;;;;;4.46;44.12;100266.25;10256407;28;20042;-59
2023/04/05 20:04:14;;;;;;;5.90;3.28;;;;;;;4.49;44.02;100266.16;10262818;28;20506;-60
2023/04/05 20:09:19;;;;;;;7.90;3.75;;;;;;;4.49;43.91;100258.41;10261289;28;20055;-59
2023/04/05 20:14:39;;;;;;;7.25;4.05;;;;;;;4.30;45.18;100262.41;10263001;28;20062;-60
2023/04/05 20:19:59;;;;;;;5.82;3.90;;;;;;;4.14;45.26;100263.75;10287249;28;20105;-59
2023/04/05 20:25:37;;;;;;;7.15;3.95;;;;;;;4.01;46.04;100269.28;10270428;28;20448;-60
2023/04/05 20:30:39;;;;;;;6.72;4.20;;;;;;;4.08;45.54;100270.81;10270666;28;20046;-59
2023/04/05 20:35:41;;;;;;;7.07;4.10;;;;;;;4.05;45.73;100265.75;10266130;28;20195;-59
2023/04/05 20:40:43;;;;;;;5.63;3.53;;;;;;;3.99;45.95;100265.91;10267216;28;20484;-59
2023/04/05 20:45:45;;;;;;;6.82;3.10;;;;;;;3.95;46.28;100257.38;10275679;28;20053;-59
2023/04/05 20:50:47;;;;;;;7.75;3.00;;;;;;;3.94;46.48;100262.59;10266790;28;20415;-58
2023/04/05 20:55:49;;;;;;;7.20;3.78;;;;;;;3.84;46.64;100267.19;10282248;28;20047;-58
2023/04/05 21:00:51;;;;;;;6.88;3.90;;;;;;;3.74;46.75;100266.53;10266689;28;20061;-58
2023/04/05 21:05:53;;;;;;;8.02;4.35;;;;;;;3.63;47.17;100262.53;10265788;28;20163;-59
2023/04/05 21:10:56;;;;;;;7.13;3.78;;;;;;;3.50;47.53;100261.16;10263800;28;20043;-58
2023/04/05 21:15:58;;;;;;;8.25;3.95;;;;;;;3.43;47.43;100259.63;10264319;28;20503;-59
2023/04/05 21:21:00;;;;;;;8.63;4.30;;;;;;;3.33;47.51;100259.03;10259647;28;20043;-59
2023/04/05 21:26:03;;;;;;;6.50;3.78;;;;;;;3.24;47.38;100259.22;10263405;28;20054;-59
2023/04/05 21:31:05;;;;;;;6.50;3.83;;;;;;;3.11;47.94;100259.59;10264284;28;20043;-59
2023/04/05 21:36:07;;;;;;;8.15;3.28;;;;;;;3.00;48.13;100265.00;10276094;28;20145;-59
2023/04/05 21:41:09;;;;;;;6.65;3.20;;;;;;;2.93;48.22;100260.84;10275976;28;20074;-59
2023/04/05 21:46:56;;;;;;;9.60;3.67;;;;;;;2.79;49.04;100262.91;10260196;28;20122;-59
2023/04/05 21:51:57;;;;;;;5.07;3.53;;;;;;;2.80;48.24;100257.72;10260366;28;20128;-59
2023/04/05 21:56:59;;;;;;;7.43;3.90;;;;;;;2.66;48.56;100262.31;10261807;28;20057;-60
2023/04/05 22:02:02;;;;;;;5.70;3.30;;;;;;;2.71;48.85;100260.50;10257980;28;20070;-59
2023/04/05 22:07:04;;;;;;;9.15;3.47;;;;;;;2.66;49.13;100258.91;10260176;28;20051;-60
2023/04/05 22:12:06;;;;;;;7.15;3.60;;;;;;;2.63;49.26;100257.25;10260430;28;20118;-59
2023/04/05 22:17:08;;;;;;;6.15;3.75;;;;;;;2.56;49.37;100249.69;10260956;28;20458;-59
2023/04/05 22:22:11;;;;;;;6.80;3.47;;;;;;;2.48;49.65;100255.00;10261961;28;20047;-59
2023/04/05 22:27:13;;;;;;;7.60;3.22;;;;;;;2.52;49.72;100254.03;10252235;28;20263;-59
2023/04/05 22:32:15;;;;;;;5.50;3.50;;;;;;;2.61;49.66;100251.28;10254633;28;20243;-60
2023/04/05 22:37:17;;;;;;;7.63;3.85;;;;;;;2.44;50.18;100248.19;10256804;28;20043;-60
2023/04/05 22:42:18;;;;;;;7.35;3.80;;;;;;;2.34;50.27;100256.19;10254365;28;20061;-59
2023/04/05 22:47:20;;;;;;;5.63;3.50;;;;;;;2.36;50.19;100255.25;10257432;28;20053;-60
2023/04/05 22:52:22;;;;;;;5.78;3.65;;;;;;;2.33;50.35;100254.50;10254687;28;20054;-60
2023/04/05 22:57:24;;;;;;;6.55;3.80;;;;;;;2.26;50.29;100251.19;10257043;28;20404;-59
2023/04/05 23:02:28;;;;;;;5.82;3.38;;;;;;;2.18;50.63;100245.31;10251668;28;20077;-59
2023/04/05 23:07:30;;;;;;;6.22;3.83;;;;;;;2.04;50.69;100237.88;10254553;28;20078;-60
2023/04/05 23:12:31;;;;;;;5.68;3.92;;;;;;;1.95;51.21;100258.69;10254671;28;20538;-60
2023/04/05 23:17:33;;;;;;;5.82;3.50;;;;;;;1.97;51.46;100243.22;10256444;28;20046;-60
2023/04/05 23:22:35;;;;;;;9.75;3.90;;;;;;;2.00;51.65;100249.16;10255976;28;20039;-59
2023/04/05 23:27:37;;;;;;;9.65;3.78;;;;;;;1.96;51.86;100242.34;10257790;28;20476;-61